Time;durP1;ratioP1;P1;durP2;ratioP2;P2;SDS_P1;SDS_P2;PMS_P1;PMS_P2;Temp;Humidity;BMP_temperature;BMP_pressure;BME280_temperature;BME280_humidity;BME280_pressure;Samples;Min_cycle;Max_cycle;Signal;HPM_P1;HPM_P2
2022/05/26 00:01:39;;;;;;;1.65;1.10;;;;;;;;;;6256314;23;20475;-46
2022/05/26 00:04:05;;;;;;;3.13;1.25;;;;;;;;;;6255993;23;20012;-47
2022/05/26 00:06:31;;;;;;;2.83;0.98;;;;;;;;;;6246605;23;20281;-48
2022/05/26 00:08:58;;;;;;;3.45;1.10;;;20.80;64.90;;;;;;6246426;23;20039;-47
2022/05/26 00:11:28;;;;;;;2.85;1.08;;;20.90;67.80;;;;;;6246493;23;20327;-47
2022/05/26 00:13:54;;;;;;;2.67;1.10;;;20.80;64.20;;;;;;6256690;23;19996;-47
2022/05/26 00:16:20;;;;;;;3.60;1.17;;;;;;;;;;6256275;23;19996;-46
2022/05/26 00:18:47;;;;;;;2.42;1.23;;;;;;;;;;6246367;23;20011;-47
2022/05/26 00:21:13;;;;;;;3.15;1.08;;;;;;;;;;6256076;23;20423;-47
2022/05/26 00:23:39;;;;;;;3.47;1.42;;;;;;;;;;6256005;23;20066;-46
2022/05/26 00:26:05;;;;;;;1.73;0.98;;;;;;;;;;6246249;23;20007;-58
2022/05/26 00:28:31;;;;;;;2.85;1.15;;;;;;;;;;6245842;23;20004;-59
2022/05/26 00:30:58;;;;;;;3.88;1.35;;;;;;;;;;6255650;23;20049;-58
2022/05/26 00:33:24;;;;;;;2.60;1.30;;;;;;;;;;6255995;23;20030;-59
2022/05/26 00:35:50;;;;;;;3.42;1.05;;;;;;;;;;6255960;23;19996;-58
2022/05/26 00:38:16;;;;;;;3.03;1.23;;;;;;;;;;6246131;23;20087;-58
2022/05/26 00:40:44;;;;;;;4.25;1.42;;;20.80;67.50;;;;;;6255971;23;20007;-59
2022/05/26 00:43:10;;;;;;;3.42;1.30;;;;;;;;;;6255938;23;20008;-58
2022/05/26 00:45:38;;;;;;;4.75;1.10;;;20.80;67.20;;;;;;6256085;23;19992;-58
2022/05/26 00:48:14;;;;;;;3.63;1.60;;;20.80;61.70;;;;;;6255960;23;20003;-58
2022/05/26 00:50:48;;;;;;;2.92;1.00;;;20.90;67.60;;;;;;6256310;23;20255;-58
2022/05/26 00:53:22;;;;;;;2.88;1.30;;;20.80;67.20;;;;;;6255865;23;20000;-58
2022/05/26 00:55:55;;;;;;;3.55;1.17;;;20.80;67.80;;;;;;6246119;23;20011;-58
2022/05/26 00:58:28;;;;;;;1.73;1.13;;;20.70;67.50;;;;;;6255833;23;20451;-58
2022/05/26 01:00:55;;;;;;;5.88;1.10;;;21.00;64.20;;;;;;6246076;23;20386;-58
2022/05/26 01:03:39;;;;;;;3.85;1.23;;;20.70;61.90;;;;;;6255507;23;20035;-58
2022/05/26 01:06:16;;;;;;;6.50;1.20;;;20.90;61.70;;;;;;6255746;23;20000;-58
2022/05/26 01:08:49;;;;;;;3.13;1.20;;;20.80;68.00;;;;;;6255772;23;19996;-58
2022/05/26 01:11:15;;;;;;;4.35;1.25;;;;;;;;;;6245940;23;20380;-58
2022/05/26 01:13:46;;;;;;;2.92;1.17;;;20.80;67.70;;;;;;6255729;23;19996;-58
2022/05/26 01:16:28;;;;;;;4.15;1.60;;;20.80;61.80;;;;;;6255722;23;20071;-58
2022/05/26 01:19:30;;;;;;;3.90;1.48;;;20.80;62.00;;;;;;6255724;23;20326;-58
2022/05/26 01:22:12;;;;;;;3.80;1.48;;;20.70;62.00;;;;;;6255767;23;20050;-58
2022/05/26 01:25:08;;;;;;;5.00;1.70;;;20.80;62.00;;;;;;6255568;23;20004;-58
2022/05/26 01:27:40;;;;;;;2.80;1.50;;;20.90;68.00;;;;;;6255675;23;20331;-59
2022/05/26 01:30:16;;;;;;;5.97;1.65;;;20.70;62.00;;;;;;6255625;23;20059;-58
2022/05/26 01:33:15;;;;;;;1.80;1.02;;;20.60;61.90;;;;;;6245707;23;19997;-58
2022/05/26 01:35:50;;;;;;;2.97;1.27;;;20.70;67.60;;;;;;6245636;23;19992;-58
2022/05/26 01:39:01;;;;;;;1.98;1.25;;;20.70;62.10;;;;;;6255526;23;20000;-58
2022/05/26 01:41:48;;;;;;;2.03;1.10;;;20.70;62.20;;;;;;6255482;23;19996;-46
2022/05/26 01:44:36;;;;;;;4.00;1.63;;;20.70;62.00;;;;;;6244907;23;20095;-47
2022/05/26 01:47:10;;;;;;;2.63;1.45;;;20.70;68.00;;;;;;6244360;23;20046;-50
2022/05/26 01:49:43;;;;;;;3.28;1.40;;;20.70;67.60;;;;;;6255255;23;19996;-48
2022/05/26 01:52:16;;;;;;;2.58;1.38;;;20.70;62.00;;;;;;6245085;23;20007;-49
2022/05/26 01:54:42;;;;;;;3.83;1.15;;;;;;;;;;6255309;23;20431;-48
2022/05/26 01:57:23;;;;;;;4.95;1.65;;;20.70;62.00;;;;;;6255353;23;20007;-48
2022/05/26 01:59:54;;;;;;;2.17;0.93;;;20.90;67.80;;;;;;6255315;23;20072;-48
2022/05/26 02:02:24;;;;;;;3.53;1.38;;;20.70;67.80;;;;;;6244874;23;20011;-49
2022/05/26 02:04:52;;;;;;;;;;;21.40;69.00;;;;;;6245927;23;20327;-48
2022/05/26 02:07:30;;;;;;;1.73;1.00;;;20.60;62.10;;;;;;6245010;23;19900;-49
2022/05/26 02:09:58;;;;;;;3.83;1.10;;;20.40;67.70;;;;;;6244997;23;20491;-47
2022/05/26 02:12:35;;;;;;;2.97;1.05;;;20.50;62.00;;;;;;6218099;23;20011;-47
2022/05/26 02:15:23;;;;;;;2.50;1.38;;;20.70;62.30;;;;;;6255110;23;19996;-47
2022/05/26 02:17:59;;;;;;;2.40;1.20;;;20.70;62.40;;;;;;6255219;23;20000;-47
2022/05/26 02:20:32;;;;;;;3.47;1.63;;;20.70;68.00;;;;;;6254997;23;20006;-47
2022/05/26 02:23:05;;;;;;;2.65;1.50;;;20.60;67.90;;;;;;6245111;23;20043;-48
2022/05/26 02:25:33;;;;;;;2.58;1.08;;;20.70;68.20;;;;;;6254987;23;20053;-47
2022/05/26 02:27:59;;;;;;;3.88;1.30;;;;;;;;;;6254936;23;20545;-46
2022/05/26 02:30:31;;;;;;;3.20;1.27;;;20.70;68.00;;;;;;6254955;23;19996;-47
2022/05/26 02:32:57;;;;;;;4.53;1.40;;;;;;;;;;6254983;23;20370;-47
2022/05/26 02:35:35;;;;;;;4.28;1.50;;;20.70;61.90;;;;;;6245107;23;19998;-48
2022/05/26 02:38:06;;;;;;;4.40;1.40;;;20.60;67.70;;;;;;6254929;23;20447;-48
2022/05/26 02:40:33;;;;;;;3.10;1.55;;;;;;;;;;6254904;23;20072;-48
2022/05/26 02:43:06;;;;;;;3.55;1.23;;;20.70;62.20;;;;;;6254726;23;20008;-47
2022/05/26 02:45:55;;;;;;;1.25;0.70;;;20.70;61.70;;;;;;6254859;23;20000;-47
2022/05/26 02:48:51;;;;;;;2.58;1.38;;;20.70;61.80;;;;;;6254832;23;20023;-47
2022/05/26 02:52:12;;;;;;;4.32;1.30;;;20.60;61.80;;;;;;6254991;23;19996;-47
2022/05/26 02:55:08;;;;;;;3.88;1.65;;;20.60;62.00;;;;;;6187616;23;20015;-46
2022/05/26 02:57:50;;;;;;;5.00;1.67;;;20.60;62.00;;;;;;6245065;23;20024;-47
2022/05/26 03:00:38;;;;;;;4.70;1.40;;;20.60;68.20;;;;;;6254957;23;19992;-47
2022/05/26 03:03:20;;;;;;;2.72;1.17;;;20.60;62.00;;;;;;6167028;23;20020;-47
2022/05/26 03:06:01;;;;;;;2.60;1.20;;;20.70;62.10;;;;;;6214299;23;20000;-47
2022/05/26 03:08:29;;;;;;;4.80;1.30;;;20.60;67.70;;;;;;6224353;23;19997;-47
2022/05/26 03:11:06;;;;;;;2.72;0.95;;;20.60;67.90;;;;;;6224296;23;20000;-47
2022/05/26 03:13:33;;;;;;;2.75;1.40;;;;;;;;;;6214561;23;20055;-47
2022/05/26 03:15:59;;;;;;;4.60;1.58;;;;;;;;;;6224121;23;19996;-47
2022/05/26 03:18:25;;;;;;;3.85;1.48;;;;;;;;;;6224272;23;20324;-47
2022/05/26 03:20:51;;;;;;;5.18;1.50;;;;;;;;;;6224237;23;19996;-47
2022/05/26 03:23:17;;;;;;;2.95;1.13;;;;;;;;;;6224159;23;20455;-47
2022/05/26 03:25:46;;;;;;;3.78;1.40;;;20.60;62.40;;;;;;6224154;23;19996;-47
2022/05/26 03:28:12;;;;;;;2.50;1.20;;;;;;;;;;6214221;23;20000;-46
2022/05/26 03:30:39;;;;;;;3.97;1.50;;;20.60;68.00;;;;;;6224422;23;20000;-58
2022/05/26 03:33:05;;;;;;;3.25;1.33;;;;;;;;;;6224250;23;20007;-58
2022/05/26 03:41:00;;;;;;;3.20;1.50;;;;;;;;;;6224274;23;20015;-58
2022/05/26 03:43:35;;;;;;;4.25;1.50;;;20.60;62.30;;;;;;6218026;23;20095;-58
2022/05/26 03:46:01;;;;;;;2.33;1.10;;;;;;;;;;6224241;23;19997;-59
2022/05/26 03:48:28;;;;;;;4.60;1.52;;;;;;;;;;6224264;23;19993;-58
2022/05/26 03:50:54;;;;;;;6.78;1.25;;;;;;;;;;6224050;23;20008;-58
2022/05/26 03:53:20;;;;;;;3.15;1.38;;;;;;;;;;6224046;23;20003;-58
2022/05/26 03:55:46;;;;;;;4.25;1.35;;;;;;;;;;6224040;23;20005;-58
2022/05/26 03:58:12;;;;;;;5.35;1.50;;;;;;;;;;6224101;23;19992;-58
2022/05/26 04:00:38;;;;;;;4.38;1.60;;;;;;;;;;6224038;23;20055;-57
2022/05/26 04:03:04;;;;;;;7.00;1.35;;;;;;;;;;6239027;23;20035;-58
2022/05/26 04:05:30;;;;;;;3.83;1.30;;;;;;;;;;6244261;23;20008;-58
2022/05/26 04:07:57;;;;;;;4.63;1.20;;;;;;;;;;6256072;23;20111;-59
2022/05/26 04:10:23;;;;;;;3.85;1.48;;;;;;;;;;6256253;23;19999;-59
2022/05/26 04:12:49;;;;;;;4.75;1.70;;;;;;;;;;6256260;23;20035;-58
2022/05/26 04:15:17;;;;;;;4.57;1.27;;;20.80;67.90;;;;;;6256244;23;20047;-58
2022/05/26 04:17:43;;;;;;;3.22;1.55;;;;;;;;;;6256250;23;19992;-58
2022/05/26 04:20:11;;;;;;;2.97;1.30;;;20.60;67.00;;;;;;6256267;23;20000;-58
2022/05/26 04:22:37;;;;;;;3.25;1.38;;;;;;;;;;6246171;23;19997;-58
2022/05/26 04:25:04;;;;;;;4.00;1.38;;;20.70;63.70;;;;;;6246311;23;20000;-59
2022/05/26 04:27:31;;;;;;;3.00;1.30;;;20.30;66.20;;;;;;6256067;23;20046;-58
2022/05/26 04:29:57;;;;;;;2.75;1.25;;;;;;;;;;6256028;23;20054;-58
2022/05/26 04:32:23;;;;;;;6.55;1.50;;;;;;;;;;6246089;23;19992;-58
2022/05/26 04:34:51;;;;;;;4.40;1.67;;;;;;;;;;6255914;23;20324;-58
2022/05/26 04:37:18;;;;;;;3.30;1.00;;;20.40;65.50;;;;;;6256018;23;20023;-58
2022/05/26 04:39:44;;;;;;;2.13;0.70;;;;;;;;;;6256088;23;19996;-58
2022/05/26 04:42:10;;;;;;;2.83;1.17;;;;;;;;;;6255997;23;20011;-58
2022/05/26 04:44:38;;;;;;;2.92;1.48;;;20.50;66.50;;;;;;6255978;23;20111;-59
2022/05/26 04:47:05;;;;;;;2.50;1.20;;;20.50;66.80;;;;;;6256029;23;20014;-58
2022/05/26 04:49:31;;;;;;;2.95;1.30;;;;;;;;;;6246089;23;20000;-58
2022/05/26 04:51:57;;;;;;;2.42;1.05;;;;;;;;;;6255879;23;20062;-58
2022/05/26 04:54:24;;;;;;;4.68;1.40;;;;;;;;;;6255830;23;20000;-58
2022/05/26 04:56:50;;;;;;;3.00;1.13;;;;;;;;;;6255849;23;20450;-58
2022/05/26 04:59:16;;;;;;;5.25;1.25;;;20.20;63.60;;;;;;6255858;23;20047;-58
2022/05/26 05:01:42;;;;;;;3.67;1.20;;;;;;;;;;6255869;23;20020;-58
2022/05/26 05:04:08;;;;;;;2.75;1.20;;;;;;;;;;6255629;23;20095;-58
2022/05/26 05:06:35;;;;;;;3.95;1.27;;;;;;;;;;6255809;23;20004;-58
2022/05/26 05:09:01;;;;;;;3.22;1.15;;;;;;;;;;6255661;23;20359;-58
2022/05/26 05:11:28;;;;;;;3.97;1.20;;;;;;;;;;6255640;23;20094;-58
2022/05/26 05:13:54;;;;;;;2.28;1.00;;;;;;;;;;6245775;23;20079;-58
2022/05/26 05:16:27;;;;;;;3.78;1.30;;;20.60;62.40;;;;;;6255667;23;20348;-58
2022/05/26 05:18:54;;;;;;;3.13;1.02;;;;;;;;;;6245704;23;19996;-58
2022/05/26 05:21:32;;;;;;;2.53;1.13;;;20.30;67.70;;;;;;6255624;23;20549;-57
2022/05/26 05:24:03;;;;;;;2.45;1.17;;;20.50;68.20;;;;;;6230165;23;20050;-58
2022/05/26 05:26:34;;;;;;;2.38;1.20;;;20.50;68.10;;;;;;6245431;23;20071;-58
2022/05/26 05:29:05;;;;;;;2.05;1.02;;;20.60;67.00;;;;;;6245654;23;20035;-58
2022/05/26 05:31:40;;;;;;;2.13;0.90;;;20.50;66.70;;;;;;6255592;23;19996;-57
2022/05/26 05:34:14;;;;;;;4.32;1.50;;;23.50;68.10;;;;;;6245675;23;20007;-57
2022/05/26 05:36:40;;;;;;;3.33;1.08;;;;;;;;;;6255576;23;20011;-57
2022/05/26 05:39:06;;;;;;;3.75;1.50;;;;;;;;;;6245370;23;20004;-58
2022/05/26 05:41:34;;;;;;;2.97;1.20;;;20.50;67.30;;;;;;6255419;23;20000;-58
2022/05/26 05:44:01;;;;;;;3.22;1.00;;;20.50;67.30;;;;;;6255332;23;20040;-56
2022/05/26 05:46:34;;;;;;;2.58;1.27;;;20.60;65.20;;;;;;6245572;23;20019;-56
2022/05/26 05:49:02;;;;;;;2.28;1.13;;;20.60;67.20;;;;;;6245658;23;20003;-57
2022/05/26 05:51:28;;;;;;;3.33;0.98;;;;;;;;;;6255416;23;19996;-57
2022/05/26 05:53:55;;;;;;;2.85;1.17;;;;;;;;;;6255191;23;20309;-57
2022/05/26 05:56:21;;;;;;;2.20;0.95;;;;;;;;;;6255368;23;20561;-56
2022/05/26 05:58:47;;;;;;;3.25;1.20;;;;;;;;;;6255192;23;20024;-56
2022/05/26 06:01:13;;;;;;;3.75;1.25;;;;;;;;;;6255121;23;20348;-57
2022/05/26 06:03:39;;;;;;;4.50;1.42;;;;;;;;;;6254733;23;20031;-56
2022/05/26 06:06:07;;;;;;;7.63;1.27;;;21.00;67.30;;;;;;6255157;23;19996;-56
2022/05/26 06:08:33;;;;;;;3.78;0.93;;;;;;;;;;6245353;23;20004;-56
2022/05/26 06:11:00;;;;;;;2.63;1.25;;;;;;;;;;6254997;23;20003;-57
2022/05/26 06:13:26;;;;;;;3.95;1.38;;;;;;;;;;6255046;23;20079;-56
2022/05/26 06:15:54;;;;;;;3.35;1.10;;;20.70;66.70;;;;;;6255185;23;20002;-56
2022/05/26 06:18:20;;;;;;;1.95;1.00;;;;;;;;;;6255101;23;20010;-57
2022/05/26 06:20:46;;;;;;;3.40;0.98;;;;;;;;;;6254950;23;19992;-56
2022/05/26 06:23:12;;;;;;;2.80;1.30;;;;;;;;;;6254820;23;20050;-57
2022/05/26 06:25:39;;;;;;;4.15;1.10;;;;;;;;;;6254960;23;20003;-55
2022/05/26 06:30:50;;;;;;;4.75;1.50;;;;;;;;;;6254814;23;20134;-57
2022/05/26 06:38:45;;;;;;;2.58;1.10;;;20.60;68.30;;;;;;6254947;23;20450;-57
2022/05/26 06:43:59;;;;;;;2.90;1.30;;;;;;;;;;6244677;23;20023;-58
2022/05/26 06:46:25;;;;;;;4.03;1.55;;;;;;;;;;6254786;23;20011;-57
2022/05/26 06:48:52;;;;;;;5.65;1.10;;;;;;;;;;6245124;23;20383;-58
2022/05/26 06:51:18;;;;;;;2.78;1.17;;;;;;;;;;6244473;23;20423;-57
2022/05/26 06:53:44;;;;;;;5.68;1.20;;;;;;;;;;6254820;23;20004;-57
2022/05/26 06:56:10;;;;;;;3.17;1.38;;;;;;;;;;6254634;23;20058;-57
2022/05/26 06:58:36;;;;;;;2.22;1.02;;;;;;;;;;6254252;23;20001;-57
2022/05/26 07:01:02;;;;;;;6.07;1.33;;;;;;;;;;6254630;23;19993;-56
2022/05/26 07:03:28;;;;;;;2.97;1.10;;;;;;;;;;6254620;23;20016;-57
2022/05/26 07:05:54;;;;;;;3.97;1.20;;;;;;;;;;6245076;23;20068;-57
2022/05/26 07:08:20;;;;;;;3.03;0.93;;;;;;;;;;6254998;23;20004;-55
2022/05/26 07:10:48;;;;;;;2.40;0.98;;;;;;;;;;6255056;23;20002;-57
2022/05/26 07:13:14;;;;;;;4.07;1.08;;;20.80;68.50;;;;;;6254593;23;20035;-56
2022/05/26 07:15:40;;;;;;;4.80;1.35;;;;;;;;;;6254599;23;20083;-55
2022/05/26 07:18:06;;;;;;;4.57;1.10;;;;;;;;;;6254578;23;20071;-55
2022/05/26 07:20:34;;;;;;;3.15;1.20;;;20.80;68.70;;;;;;6254597;23;20003;-55
2022/05/26 07:23:00;;;;;;;2.55;1.30;;;;;;;;;;6254439;23;20000;-54
2022/05/26 07:25:26;;;;;;;3.58;1.10;;;;;;;;;;6254400;23;20454;-54
2022/05/26 07:27:52;;;;;;;2.60;0.90;;;20.70;68.40;;;;;;6254410;23;20046;-56
2022/05/26 07:30:18;;;;;;;8.70;1.70;;;;;;;;;;6254724;23;20030;-54
2022/05/26 07:32:44;;;;;;;2.00;0.80;;;;;;;;;;6254536;23;19996;-55
2022/05/26 07:35:10;;;;;;;3.95;1.67;;;;;;;;;;6254572;23;20004;-55
2022/05/26 07:43:08;;;;;;;6.00;1.95;;;20.90;69.70;;;;;;6256497;23;20027;-55
2022/05/26 07:45:34;;;;;;;7.30;1.23;;;;;;;;;;6246643;23;19992;-54
2022/05/26 07:48:00;;;;;;;7.90;1.30;;;;;;;;;;6256453;23;20087;-54
2022/05/26 07:50:26;;;;;;;6.40;1.35;;;;;;;;;;6246585;23;20019;-53
2022/05/26 07:52:53;;;;;;;4.30;1.13;;;;;;;;;;6246411;23;20035;-56
2022/05/26 07:55:19;;;;;;;5.57;1.63;;;20.90;68.20;;;;;;6256368;23;20023;-56
2022/05/26 07:57:46;;;;;;;8.63;2.10;;;;;;;;;;6256276;23;19996;-53
2022/05/26 08:00:12;;;;;;;11.10;2.00;;;20.90;68.30;;;;;;6246408;23;20000;-55
2022/05/26 08:02:40;;;;;;;7.97;1.50;;;21.10;66.80;;;;;;6255781;23;20004;-54
2022/05/26 08:05:06;;;;;;;6.07;1.40;;;;;;;;;;6246050;23;19997;-53
2022/05/26 08:07:32;;;;;;;6.55;1.33;;;;;;;;;;6256362;23;19992;-54
2022/05/26 08:09:58;;;;;;;8.43;1.80;;;;;;;;;;6256325;23;20015;-54
2022/05/26 08:12:24;;;;;;;8.32;1.63;;;;;;;;;;6256419;23;19992;-51
2022/05/26 08:14:50;;;;;;;5.05;1.40;;;;;;;;;;6256325;23;19992;-53
2022/05/26 08:17:20;;;;;;;10.65;2.05;;;21.30;69.60;;;;;;6246489;23;20022;-53
2022/05/26 08:19:46;;;;;;;8.88;1.50;;;;;;;;;;6256381;23;19992;-54
2022/05/26 08:22:13;;;;;;;3.90;1.42;;;21.20;69.40;;;;;;6256354;23;20002;-52
2022/05/26 08:24:39;;;;;;;7.13;1.42;;;;;;;;;;6256341;23;20008;-46
2022/05/26 08:27:05;;;;;;;3.47;1.05;;;;;;;;;;6256253;23;20031;-47
2022/05/26 08:29:31;;;;;;;6.63;1.95;;;;;;;;;;6256324;23;20004;-47
2022/05/26 08:31:57;;;;;;;6.85;1.30;;;;;;;;;;6246357;23;19996;-47
2022/05/26 08:34:23;;;;;;;6.20;1.60;;;;;;;;;;6256220;23;20062;-47
2022/05/26 08:36:49;;;;;;;11.23;1.77;;;;;;;;;;6256175;23;20004;-47
2022/05/26 08:39:16;;;;;;;7.75;1.50;;;21.10;69.80;;;;;;6246204;23;19996;-48
2022/05/26 08:41:48;;;;;;;7.50;1.60;;;21.10;70.10;;;;;;6256318;23;19992;-47
2022/05/26 08:44:29;;;;;;;3.63;1.42;;;21.10;64.50;;;;;;6246261;23;20013;-47
2022/05/26 08:47:04;;;;;;;4.68;1.17;;;21.10;64.10;;;;;;6256205;23;19992;-48
2022/05/26 08:49:40;;;;;;;4.00;1.17;;;21.30;64.40;;;;;;6246087;23;20027;-47
2022/05/26 08:52:19;;;;;;;2.60;1.17;;;21.20;64.20;;;;;;6255613;23;20293;-48
2022/05/26 08:55:12;;;;;;;5.32;1.20;;;21.20;63.70;;;;;;6245761;23;20498;-46
2022/05/26 08:57:52;;;;;;;4.88;1.17;;;21.30;63.40;;;;;;6255726;23;20443;-46
2022/05/26 09:00:21;;;;;;;4.57;1.40;;;21.30;69.10;;;;;;6255996;23;20429;-46
2022/05/26 09:02:51;;;;;;;5.85;1.30;;;;;;;;;;6218385;23;20009;-47
2022/05/26 09:05:19;;;;;;;2.90;1.15;;;21.50;68.90;;;;;;6255744;23;20004;-48
2022/05/26 09:13:47;;;;;;;3.40;0.95;;;;;;;;;;6245793;23;20011;-48
2022/05/26 09:16:14;;;;;;;6.30;0.98;;;21.50;66.30;;;;;;6255724;23;20000;-47
2022/05/26 09:18:40;;;;;;;3.90;1.08;;;;;;;;;;6255931;23;20026;-47
2022/05/26 09:21:23;;;;;;;6.45;1.10;;;21.50;62.00;;;;;;6255834;23;20007;-47
2022/05/26 09:23:50;;;;;;;3.78;0.90;;;21.50;66.30;;;;;;6255686;23;20012;-47
2022/05/26 09:26:19;;;;;;;3.65;1.10;;;21.60;68.10;;;;;;6228867;23;20000;-47
2022/05/26 09:28:50;;;;;;;5.28;0.95;;;21.50;67.90;;;;;;6255753;23;20075;-47
2022/05/26 09:31:25;;;;;;;7.63;1.25;;;21.60;61.90;;;;;;6255803;23;20000;-47
2022/05/26 09:34:06;;;;;;;4.82;1.40;;;21.60;61.90;;;;;;6255868;23;20000;-48
2022/05/26 09:36:48;;;;;;;5.03;1.20;;;21.50;61.90;;;;;;6255736;23;19996;-48
2022/05/26 09:39:14;;;;;;;3.58;1.17;;;;;;;;;;6255763;23;20122;-47
2022/05/26 09:41:44;;;;;;;2.97;1.08;;;21.60;67.70;;;;;;6255637;23;20000;-47
2022/05/26 09:44:21;;;;;;;3.27;0.90;;;21.60;61.90;;;;;;6245613;23;20019;-47
2022/05/26 09:46:51;;;;;;;3.42;1.25;;;21.60;67.60;;;;;;6255573;23;20000;-47
2022/05/26 09:49:23;;;;;;;4.15;0.88;;;21.70;67.60;;;;;;6245752;23;19992;-48
2022/05/26 09:51:49;;;;;;;2.42;0.73;;;;;;;;;;6245380;23;19993;-48
2022/05/26 09:54:28;;;;;;;2.55;0.93;;;21.70;61.70;;;;;;6255440;23;19997;-47
2022/05/26 09:56:54;;;;;;;6.32;1.30;;;;;;;;;;6255622;23;20301;-47
2022/05/26 09:59:26;;;;;;;4.60;1.63;;;21.70;61.40;;;;;;6245568;23;20071;-47
2022/05/26 10:02:03;;;;;;;3.45;1.10;;;21.70;61.30;;;;;;6255358;23;20000;-47
2022/05/26 10:04:55;;;;;;;5.15;1.00;;;21.70;61.10;;;;;;6217821;23;20024;-47
2022/05/26 10:07:32;;;;;;;6.03;1.27;;;21.70;66.80;;;;;;6255390;23;19996;-47
2022/05/26 10:10:14;;;;;;;1.95;0.70;;;21.70;61.20;;;;;;6255424;23;20004;-48
2022/05/26 10:13:03;;;;;;;5.80;1.13;;;21.60;67.00;;;;;;6255294;23;20057;-47
2022/05/26 10:15:39;;;;;;;2.67;0.95;;;21.80;67.30;;;;;;6255359;23;20006;-47
2022/05/26 10:18:23;;;;;;;3.83;0.85;;;21.80;61.50;;;;;;6245492;23;19997;-47
2022/05/26 10:21:18;;;;;;;2.50;0.73;;;21.80;67.30;;;;;;6255410;23;20114;-48
2022/05/26 10:24:31;;;;;;;3.42;1.05;;;21.90;61.10;;;;;;6238073;23;20012;-48
2022/05/26 10:27:05;;;;;;;3.22;0.73;;;21.90;66.70;;;;;;6238012;23;20000;-48
2022/05/26 10:30:09;;;;;;;2.50;0.70;;;22.00;60.80;;;;;;6255250;23;20083;-48
2022/05/26 10:32:48;;;;;;;2.38;0.80;;;21.70;66.40;;;;;;6244905;23;20423;-47
2022/05/26 10:35:26;;;;;;;4.10;0.77;;;21.90;60.60;;;;;;6255163;23;20000;-55
2022/05/26 10:38:18;;;;;;;5.55;1.05;;;21.90;60.50;;;;;;6245207;23;20043;-56
2022/05/26 10:41:01;;;;;;;4.20;0.90;;;22.00;60.60;;;;;;6255098;23;20000;-55
2022/05/26 10:43:37;;;;;;;5.38;1.02;;;22.00;66.30;;;;;;6244661;23;20015;-56
2022/05/26 10:46:07;;;;;;;1.23;0.65;;;22.00;66.40;;;;;;6255071;23;19992;-55
2022/05/26 10:49:01;;;;;;;1.88;0.60;;;22.00;60.80;;;;;;6245196;23;20000;-57
2022/05/26 10:51:45;;;;;;;3.85;0.82;;;22.00;60.70;;;;;;6254887;23;20360;-57
2022/05/26 10:54:11;;;;;;;3.28;1.02;;;;;;;;;;6244941;23;20122;-56
2022/05/26 10:57:00;;;;;;;2.40;0.90;;;21.80;66.10;;;;;;6254894;23;20032;-55
2022/05/26 10:59:48;;;;;;;4.05;1.00;;;22.10;60.50;;;;;;6244707;23;20007;-56
2022/05/26 11:02:25;;;;;;;1.85;0.70;;;22.10;60.40;;;;;;6254708;23;20003;-57
2022/05/26 11:05:01;;;;;;;4.32;1.05;;;22.10;60.00;;;;;;6254901;23;20453;-57
2022/05/26 11:07:35;;;;;;;4.13;0.80;;;22.10;59.80;;;;;;6244162;23;20012;-57
2022/05/26 11:10:40;;;;;;;2.90;0.98;;;22.20;60.30;;;;;;6254545;23;20004;-55
2022/05/26 11:13:17;;;;;;;3.63;0.70;;;22.10;66.40;;;;;;6146615;23;19998;-56
2022/05/26 11:18:48;;;;;;;1.50;0.63;;;22.10;60.30;;;;;;6257158;23;20062;-55
2022/05/26 11:21:18;;;;;;;2.60;0.93;;;22.10;66.40;;;;;;6257040;23;19996;-56
2022/05/26 11:23:44;;;;;;;;;;;22.90;67.90;;;;;;6257476;23;20005;-55
2022/05/26 11:26:28;;;;;;;1.70;0.60;;;22.20;60.30;;;;;;6257047;23;19906;-56
2022/05/26 11:29:01;;;;;;;3.25;1.00;;;22.20;66.40;;;;;;6247248;23;20319;-56
2022/05/26 11:37:31;;;;;;;4.03;1.05;;;22.20;60.40;;;;;;6256963;23;20057;-56
2022/05/26 11:40:02;;;;;;;1.60;0.70;;;22.20;65.70;;;;;;6256866;23;20000;-57
2022/05/26 11:42:54;;;;;;;2.72;0.95;;;22.20;59.70;;;;;;6256895;23;20027;-56
2022/05/26 11:45:23;;;;;;;2.53;0.88;;;22.30;66.00;;;;;;6247112;23;20016;-56
2022/05/26 11:48:04;;;;;;;2.23;0.63;;;22.20;59.70;;;;;;6256776;23;20339;-56
2022/05/26 11:50:41;;;;;;;1.80;0.73;;;22.20;60.10;;;;;;6246510;23;20239;-56
2022/05/26 11:53:33;;;;;;;1.77;0.55;;;22.40;66.20;;;;;;6256712;23;20360;-56
2022/05/26 11:56:04;;;;;;;2.40;0.75;;;22.20;66.20;;;;;;6246797;23;20085;-56
2022/05/26 11:58:36;;;;;;;3.67;0.70;;;22.20;65.90;;;;;;6256720;23;20067;-57
2022/05/26 12:01:31;;;;;;;2.75;0.85;;;22.20;60.20;;;;;;6256639;23;20006;-55
2022/05/26 12:03:57;;;;;;;2.05;0.68;;;;;;;;;;6221942;23;20012;-58
2022/05/26 12:06:37;;;;;;;3.03;0.60;;;22.30;59.70;;;;;;6256599;23;19993;-58
2022/05/26 12:09:07;;;;;;;1.95;0.80;;;22.30;65.50;;;;;;6256656;23;20067;-58
2022/05/26 12:11:54;;;;;;;3.35;0.75;;;22.20;59.90;;;;;;6246602;23;20035;-58
2022/05/26 12:14:27;;;;;;;2.65;0.70;;;22.20;59.00;;;;;;6256591;23;20000;-58
2022/05/26 12:16:54;;;;;;;3.28;0.90;;;;;;;;;;6246295;23;20501;-58
2022/05/26 12:19:42;;;;;;;1.52;0.63;;;22.30;59.20;;;;;;6256470;23;20026;-56
2022/05/26 12:22:25;;;;;;;2.00;0.73;;;22.30;59.20;;;;;;6256453;23;20043;-58
2022/05/26 12:25:07;;;;;;;3.83;0.77;;;22.30;64.60;;;;;;6219449;23;20566;-58
2022/05/26 12:27:51;;;;;;;2.67;0.70;;;22.50;59.20;;;;;;6245613;23;20451;-58
2022/05/26 12:30:32;;;;;;;4.50;0.75;;;22.30;59.40;;;;;;6246518;23;20000;-57
2022/05/26 12:33:01;;;;;;;3.08;0.80;;;22.40;65.00;;;;;;6256356;23;20067;-58
2022/05/26 12:35:27;;;;;;;2.10;0.77;;;;;;;;;;6246056;23;19996;-57
2022/05/26 12:38:23;;;;;;;2.65;1.13;;;22.40;59.20;;;;;;6256315;23;20450;-58
2022/05/26 12:41:13;;;;;;;4.45;1.15;;;22.30;58.70;;;;;;6246509;23;20007;-58
2022/05/26 12:44:21;;;;;;;2.83;1.00;;;22.20;59.10;;;;;;6256318;23;20087;-57
2022/05/26 12:46:47;;;;;;;2.90;0.70;;;;;;;;;;6245970;23;20435;-57
2022/05/26 12:49:31;;;;;;;2.33;0.70;;;22.40;58.90;;;;;;6246327;23;20001;-58
2022/05/26 12:52:10;;;;;;;2.58;1.08;;;22.40;58.70;;;;;;6256169;23;20000;-58
2022/05/26 12:54:52;;;;;;;2.65;0.80;;;22.40;64.70;;;;;;6256262;23;19993;-57
2022/05/26 12:57:24;;;;;;;1.65;0.70;;;22.30;64.10;;;;;;6256105;23;20069;-58
2022/05/26 12:59:50;;;;;;;3.35;0.88;;;;;;;;;;6256245;23;20046;-58
2022/05/26 13:02:16;;;;;;;3.33;0.70;;;;;;;;;;6245860;23;20432;-58
2022/05/26 13:04:43;;;;;;;1.40;0.52;;;22.50;64.40;;;;;;6255988;23;20008;-57
2022/05/26 13:07:12;;;;;;;1.25;0.47;;;22.20;64.20;;;;;;6255997;23;20066;-57
2022/05/26 13:09:49;;;;;;;3.13;0.73;;;22.30;58.40;;;;;;6246137;23;20003;-57
2022/05/26 13:12:23;;;;;;;2.90;0.98;;;22.60;58.60;;;;;;6256051;23;20335;-58
2022/05/26 13:14:52;;;;;;;3.58;0.60;;;22.40;64.20;;;;;;6255977;23;20028;-57
2022/05/26 13:17:24;;;;;;;4.50;0.98;;;22.30;58.70;;;;;;6255869;23;19996;-58
2022/05/26 13:19:52;;;;;;;1.08;0.50;;;22.30;64.40;;;;;;6246014;23;20007;-57
2022/05/26 13:22:18;;;;;;;1.58;0.60;;;;;;;;;;6255843;23;20000;-58
2022/05/26 13:25:05;;;;;;;1.83;0.65;;;22.40;58.40;;;;;;6255756;23;20008;-56
2022/05/26 13:27:48;;;;;;;1.92;0.70;;;22.90;58.60;;;;;;6245954;23;20001;-55
2022/05/26 13:33:13;;;;;;;1.63;0.52;;;22.40;64.30;;;;;;6255793;23;20007;-57
2022/05/26 13:35:49;;;;;;;2.22;0.80;;;22.40;64.40;;;;;;6255833;23;20004;-57
2022/05/26 13:38:46;;;;;;;1.88;0.40;;;22.30;58.60;;;;;;6255723;23;20063;-57
2022/05/26 13:41:33;;;;;;;3.78;0.68;;;22.40;64.20;;;;;;6245506;23;19996;-58
2022/05/26 13:44:04;;;;;;;2.35;0.90;;;22.30;64.50;;;;;;6244721;23;20008;-58
2022/05/26 13:46:35;;;;;;;1.75;0.65;;;22.40;64.80;;;;;;6255656;23;19996;-57
2022/05/26 13:49:31;;;;;;;2.50;0.50;;;22.40;64.40;;;;;;6255578;23;20004;-58
2022/05/26 13:51:58;;;;;;;2.20;0.80;;;;;;;;;;6192552;23;20419;-58
2022/05/26 13:54:57;;;;;;;3.88;0.40;;;22.40;59.00;;;;;;6245318;23;20000;-57
2022/05/26 13:57:30;;;;;;;1.85;0.70;;;22.40;64.40;;;;;;6255647;23;20003;-57
2022/05/26 14:00:03;;;;;;;1.65;0.70;;;22.30;58.30;;;;;;6255559;23;19992;-56
2022/05/26 14:02:32;;;;;;;2.30;0.75;;;22.40;64.10;;;;;;6255563;23;20003;-57
2022/05/26 14:04:59;;;;;;;4.00;0.60;;;22.40;63.90;;;;;;6245576;23;20004;-57
2022/05/26 14:07:35;;;;;;;2.13;0.57;;;22.40;58.50;;;;;;6255377;23;19992;-57
2022/05/26 14:10:15;;;;;;;2.92;0.50;;;22.40;64.40;;;;;;6255425;23;20000;-58
2022/05/26 14:12:47;;;;;;;1.65;0.52;;;24.70;66.00;;;;;;6255610;23;19996;-58
2022/05/26 14:15:13;;;;;;;1.55;0.40;;;;;;;;;;6255435;23;20026;-57
2022/05/26 14:17:42;;;;;;;3.92;0.85;;;22.40;64.20;;;;;;6255327;23;20003;-57
2022/05/26 14:20:11;;;;;;;1.83;0.80;;;22.50;58.70;;;;;;6245417;23;20004;-57
2022/05/26 14:22:37;;;;;;;1.23;0.50;;;;;;;;;;6255317;23;19999;-55
2022/05/26 14:25:03;;;;;;;2.17;0.70;;;22.60;63.10;;;;;;6255209;23;20343;-56
2022/05/26 14:27:49;;;;;;;1.95;0.60;;;22.40;64.60;;;;;;6255214;23;19996;-57
2022/05/26 14:30:43;;;;;;;3.17;0.50;;;22.40;58.90;;;;;;6245466;23;19997;-58
2022/05/26 14:33:27;;;;;;;3.45;0.70;;;22.40;58.60;;;;;;6255304;23;20007;-56
2022/05/26 14:35:53;;;;;;;2.95;0.65;;;;;;;;;;6251243;23;20000;-58
2022/05/26 14:38:19;;;;;;;2.05;0.57;;;;;;;;;;6255198;23;20054;-57
2022/05/26 14:40:46;;;;;;;3.95;1.10;;;22.40;63.90;;;;;;6255128;23;20000;-57